Terminal Aerodrome Forecast
Issued by NWS

Home | Current Version | Previous Version | Text Only | Print | Product List | Glossary Off
Versions: 1 2 3 4 5 6 7 8 9 10 11 12 13 14 15 16

680
FTUS43 KTOP 262320
TAFMHK
TAF
KMHK 262320Z 2700/2724 08010KT P6SM TSRA BKN035CB BKN070
      TEMPO 2700/2704 11020G35KT 3SM TSRA OVC025CB
     FM270400 10011KT P6SM VCTS BKN040CB OVC090
     FM270900 15009KT P6SM BKN020
     FM271600 16010KT P6SM VCTS BKN015CB
     FM271900 17010KT P6SM VCTS BKN040CB=

USA.gov is the U.S. government's official web portal to all federal, state and local government web resources and services.